Alpine, Colorado
Current Conditions -  °F | °C
As of 2:30 PM on Saturday 25 Oct 2014 (Local Time) from KRCV Reporting Station
Clear Clear  
Wind Chill: 20°   Ceiling: Unl
Heat Index: 20°   Visibility: 10mi
Dew Point: -3°   Wind: 3mph
Humidity: 21%   Direction: 130°SE
Pressure: 30.33"   Gusts: NA
Location:  37.6617°N, 106.617°W
Report Text: KRCV 252030Z AUTO 13003KT 10SM CLR 20/M03 A3033 RMK AO2 T01981033
Loading
Personal Weather Stations






























Interactive Weather Map
Tropical Storm Tracking
New forecast layout! Learn more

10-Day Weather Forecast

Advertisements
Track Severe Weather on mobile